createdAt,value
2019-06-26T00:00:45.484Z,29.51
2019-06-26T00:01:51.168Z,29.51
2019-06-26T00:02:56.191Z,29.51
2019-06-26T00:04:02.298Z,29.50
2019-06-26T00:05:07.613Z,29.50
2019-06-26T00:06:13.283Z,29.48
2019-06-26T00:07:18.436Z,29.47
2019-06-26T00:08:24.050Z,29.45
2019-06-26T00:09:29.744Z,29.45
2019-06-26T00:10:35.635Z,29.44
2019-06-26T00:11:40.597Z,29.43
2019-06-26T00:12:46.161Z,29.41
2019-06-26T00:13:52.713Z,29.41
2019-06-26T00:14:58.560Z,29.39
2019-06-26T00:16:03.661Z,29.38
2019-06-26T00:17:09.488Z,29.35
2019-06-26T00:18:14.866Z,29.35
2019-06-26T00:19:20.685Z,29.32
2019-06-26T00:20:25.810Z,29.31
2019-06-26T00:21:31.797Z,29.30
2019-06-26T00:22:36.682Z,29.29
2019-06-26T00:23:42.304Z,29.29
2019-06-26T00:24:47.230Z,29.27
2019-06-26T00:25:52.766Z,29.26
2019-06-26T00:26:57.778Z,29.26
2019-06-26T00:28:03.534Z,29.24
2019-06-26T00:29:08.507Z,29.24
2019-06-26T00:30:15.093Z,29.22
2019-06-26T00:31:20.223Z,29.21
2019-06-26T00:32:25.846Z,29.20
2019-06-26T00:33:31.091Z,29.18
2019-06-26T00:34:36.905Z,29.16
2019-06-26T00:35:41.913Z,29.15
2019-06-26T00:36:47.540Z,29.14
2019-06-26T00:37:52.502Z,29.13
2019-06-26T00:38:58.254Z,29.10
2019-06-26T00:40:03.584Z,29.08
2019-06-26T00:41:09.162Z,29.05
2019-06-26T00:42:14.211Z,29.03
2019-06-26T00:43:20.092Z,29.02
2019-06-26T00:44:25.281Z,29.00
2019-06-26T00:45:30.899Z,28.97
2019-06-26T00:46:36.567Z,28.95
2019-06-26T00:47:42.309Z,28.93
2019-06-26T00:48:47.411Z,28.91
2019-06-26T00:49:53.262Z,28.90
2019-06-26T00:50:58.370Z,28.89
2019-06-26T00:52:04.065Z,28.87
2019-06-26T00:53:09.463Z,28.86
2019-06-26T00:54:15.032Z,28.86
2019-06-26T00:55:20.403Z,28.84
2019-06-26T00:56:26.189Z,28.83
2019-06-26T00:57:31.304Z,28.82
2019-06-26T00:58:36.973Z,28.81
2019-06-26T00:59:41.968Z,28.80
2019-06-26T01:00:52.046Z,28.81
2019-06-26T01:01:57.332Z,28.79
2019-06-26T01:03:02.915Z,28.79
2019-06-26T01:04:12.539Z,28.80
2019-06-26T01:05:18.389Z,28.79
2019-06-26T01:07:19.093Z,28.78
2019-06-26T01:08:24.979Z,28.77
2019-06-26T01:09:30.151Z,28.71
2019-06-26T01:10:35.634Z,28.71
2019-06-26T01:11:40.660Z,28.69
2019-06-26T01:12:46.624Z,28.68
2019-06-26T01:13:58.041Z,28.67
2019-06-26T01:15:01.983Z,28.66
2019-06-26T01:16:07.050Z,28.63
2019-06-26T01:17:12.839Z,28.61
2019-06-26T01:18:17.757Z,28.59
2019-06-26T01:19:23.357Z,28.58
2019-06-26T01:20:28.854Z,28.57
2019-06-26T01:21:34.485Z,28.56
2019-06-26T01:22:39.599Z,28.55
2019-06-26T01:23:45.114Z,28.54
2019-06-26T01:24:50.083Z,28.52
2019-06-26T01:25:56.130Z,28.51
2019-06-26T01:27:01.143Z,28.50
2019-06-26T01:28:07.019Z,28.49
2019-06-26T01:29:11.934Z,28.49
2019-06-26T01:30:18.148Z,28.48
2019-06-26T01:31:23.280Z,28.47
2019-06-26T01:32:28.874Z,28.45
2019-06-26T01:33:33.834Z,28.45
2019-06-26T01:34:39.917Z,28.44
2019-06-26T01:35:44.877Z,28.42
2019-06-26T01:36:50.706Z,28.42
2019-06-26T01:37:55.676Z,28.41
2019-06-26T01:39:01.286Z,28.40
2019-06-26T01:40:06.921Z,28.39
2019-06-26T01:41:12.513Z,28.38
2019-06-26T01:42:17.423Z,28.35
2019-06-26T01:44:26.236Z,28.31
2019-06-26T01:45:32.228Z,28.27
2019-06-26T01:46:37.149Z,28.26
2019-06-26T01:47:43.273Z,28.26
2019-06-26T01:48:48.413Z,28.24
2019-06-26T01:49:53.915Z,28.24
2019-06-26T01:50:58.813Z,28.23
2019-06-26T01:52:04.494Z,28.23
2019-06-26T01:53:09.665Z,28.22
2019-06-26T01:54:15.173Z,28.20
2019-06-26T01:55:20.142Z,28.17
2019-06-26T01:56:25.914Z,28.18
2019-06-26T01:57:30.917Z,28.16
2019-06-26T01:58:36.462Z,28.13
2019-06-26T01:59:41.387Z,28.12
2019-06-26T02:00:46.943Z,28.11
2019-06-26T02:01:54.187Z,28.11
2019-06-26T02:02:59.995Z,28.10
2019-06-26T02:04:05.006Z,28.09
2019-06-26T02:05:11.440Z,28.07
2019-06-26T02:06:16.789Z,28.06
2019-06-26T02:07:22.380Z,28.04
2019-06-26T02:08:27.284Z,28.02
2019-06-26T02:09:32.796Z,28.01
2019-06-26T02:10:37.847Z,28.00
2019-06-26T02:11:43.584Z,27.99
2019-06-26T02:12:48.602Z,27.99
2019-06-26T02:13:54.325Z,27.97
2019-06-26T02:14:59.233Z,27.95
2019-06-26T02:16:04.903Z,27.94
2019-06-26T02:17:09.914Z,27.92
2019-06-26T02:18:36.994Z,27.91
2019-06-26T02:19:42.140Z,27.90
2019-06-26T02:20:47.670Z,27.88
2019-06-26T02:21:52.976Z,27.88
2019-06-26T02:22:58.432Z,27.86
2019-06-26T02:24:03.446Z,27.85
2019-06-26T02:25:09.310Z,27.85
2019-06-26T02:26:14.405Z,27.77
2019-06-26T02:27:19.914Z,27.77
2019-06-26T02:28:25.004Z,27.82
2019-06-26T02:29:30.723Z,27.81
2019-06-26T02:30:35.576Z,27.80
2019-06-26T02:31:41.162Z,27.75
2019-06-26T02:32:46.436Z,27.78
2019-06-26T02:33:51.958Z,27.77
2019-06-26T02:34:56.890Z,27.76
2019-06-26T02:36:02.466Z,27.75
2019-06-26T02:37:07.381Z,27.73
2019-06-26T02:38:12.910Z,27.72
2019-06-26T02:39:17.899Z,27.70
2019-06-26T02:40:23.569Z,27.68
2019-06-26T02:41:28.652Z,27.60
2019-06-26T02:42:34.521Z,27.60
2019-06-26T02:43:39.735Z,27.63
2019-06-26T02:44:52.902Z,27.61
2019-06-26T02:45:51.970Z,27.60
2019-06-26T02:47:17.581Z,27.55
2019-06-26T02:48:04.258Z,27.57
2019-06-26T02:49:09.792Z,27.56
2019-06-26T02:50:14.770Z,27.55
2019-06-26T02:51:20.295Z,27.54
2019-06-26T02:52:25.479Z,27.53
2019-06-26T02:53:32.934Z,27.52
2019-06-26T02:54:37.890Z,27.50
2019-06-26T02:55:43.546Z,27.50
2019-06-26T02:56:48.814Z,27.49
2019-06-26T02:57:54.299Z,27.47
2019-06-26T02:58:59.772Z,27.46
2019-06-26T03:00:06.682Z,27.46
2019-06-26T03:01:11.736Z,27.43
2019-06-26T03:02:17.205Z,27.43
2019-06-26T03:03:22.310Z,27.41
2019-06-26T03:04:28.116Z,27.40
2019-06-26T03:05:33.258Z,27.39
2019-06-26T03:06:38.841Z,27.39
2019-06-26T03:07:44.110Z,27.38
2019-06-26T03:08:50.094Z,27.37
2019-06-26T03:09:55.064Z,27.36
2019-06-26T03:11:00.659Z,27.35
2019-06-26T03:12:05.703Z,27.34
2019-06-26T03:13:11.251Z,27.33
2019-06-26T03:14:16.158Z,27.27
2019-06-26T03:15:21.844Z,27.27
2019-06-26T03:16:27.066Z,27.30
2019-06-26T03:17:33.120Z,27.30
2019-06-26T03:18:38.426Z,27.29
2019-06-26T03:19:44.187Z,27.29
2019-06-26T03:20:52.289Z,27.28
2019-06-26T03:21:57.881Z,27.23
2019-06-26T03:23:03.086Z,27.23
2019-06-26T03:24:08.601Z,27.27
2019-06-26T03:25:13.835Z,27.25
2019-06-26T03:26:23.052Z,27.24
2019-06-26T03:27:27.994Z,27.23
2019-06-26T03:28:33.506Z,27.22
2019-06-26T03:29:38.482Z,27.19
2019-06-26T03:30:44.149Z,27.19
2019-06-26T03:31:49.429Z,27.14
2019-06-26T03:32:54.919Z,27.18
2019-06-26T03:34:00.039Z,27.17
2019-06-26T03:35:07.056Z,27.17
2019-06-26T03:36:12.206Z,27.12
2019-06-26T03:37:17.775Z,27.16
2019-06-26T03:38:22.908Z,27.11
2019-06-26T03:39:28.416Z,27.09
2019-06-26T03:40:33.371Z,27.09
2019-06-26T03:41:39.109Z,27.13
2019-06-26T03:42:44.130Z,27.13
2019-06-26T03:43:49.903Z,27.13
2019-06-26T03:44:54.837Z,27.13
2019-06-26T03:46:00.604Z,27.13
2019-06-26T03:47:05.947Z,27.13
2019-06-26T03:48:11.706Z,27.11
2019-06-26T03:49:16.609Z,27.06
2019-06-26T03:50:22.214Z,27.11
2019-06-26T03:51:27.496Z,27.11
2019-06-26T03:52:33.251Z,27.09
2019-06-26T03:53:38.247Z,27.09
2019-06-26T03:54:43.810Z,27.03
2019-06-26T03:55:48.724Z,27.06
2019-06-26T03:56:54.250Z,27.06
2019-06-26T03:57:59.176Z,27.05
2019-06-26T03:59:04.859Z,27.05
2019-06-26T04:00:11.386Z,26.99
2019-06-26T04:01:16.948Z,26.99
2019-06-26T04:02:22.191Z,27.03
2019-06-26T04:03:28.215Z,27.03
2019-06-26T04:04:33.301Z,27.01
2019-06-26T04:05:38.985Z,26.99
2019-06-26T04:06:44.106Z,26.99
2019-06-26T04:07:49.595Z,27.01
2019-06-26T04:08:54.922Z,27.01
2019-06-26T04:10:00.733Z,27.02
2019-06-26T04:11:05.641Z,27.02
2019-06-26T04:12:11.463Z,27.00
2019-06-26T04:13:19.587Z,26.99
2019-06-26T04:14:25.126Z,26.98
2019-06-26T04:15:41.452Z,26.96
2019-06-26T04:16:37.802Z,26.96
2019-06-26T04:17:43.201Z,26.96
2019-06-26T04:18:48.789Z,26.95
2019-06-26T04:19:53.851Z,26.95
2019-06-26T04:20:59.476Z,26.95
2019-06-26T04:22:04.556Z,26.97
2019-06-26T04:23:10.139Z,26.97
2019-06-26T04:24:15.159Z,26.94
2019-06-26T04:25:20.633Z,26.94
2019-06-26T04:26:25.831Z,26.97
2019-06-26T04:27:31.537Z,26.99
2019-06-26T04:28:36.505Z,26.96
2019-06-26T04:29:42.353Z,26.97
2019-06-26T04:30:47.355Z,26.98
2019-06-26T04:31:52.905Z,26.97
2019-06-26T04:32:57.895Z,26.94
2019-06-26T04:34:03.601Z,26.93
2019-06-26T04:35:08.989Z,26.96
2019-06-26T04:36:14.588Z,26.90
2019-06-26T04:37:19.756Z,26.90
2019-06-26T04:38:25.358Z,26.91
2019-06-26T04:39:30.294Z,26.85
2019-06-26T04:40:36.324Z,26.85
2019-06-26T04:41:41.263Z,26.84
2019-06-26T04:42:46.998Z,26.84
2019-06-26T04:43:51.915Z,26.89
2019-06-26T04:44:57.744Z,26.83
2019-06-26T04:46:02.652Z,26.87
2019-06-26T04:47:08.392Z,26.85
2019-06-26T04:48:13.336Z,26.85
2019-06-26T04:49:18.836Z,26.84
2019-06-26T04:50:24.009Z,26.84
2019-06-26T04:51:29.528Z,26.84
2019-06-26T04:52:34.631Z,26.84
2019-06-26T04:53:40.500Z,26.81
2019-06-26T04:54:46.046Z,26.85
2019-06-26T04:55:51.540Z,26.85
2019-06-26T04:56:56.560Z,26.81
2019-06-26T04:58:02.374Z,26.84
2019-06-26T04:59:07.403Z,26.84
2019-06-26T05:00:15.305Z,26.85
2019-06-26T05:01:20.319Z,26.88
2019-06-26T05:02:25.879Z,26.89
2019-06-26T05:03:30.896Z,26.90
2019-06-26T05:04:36.578Z,26.89
2019-06-26T05:05:44.451Z,26.93
2019-06-26T05:06:49.288Z,26.93
2019-06-26T05:07:54.521Z,26.89
2019-06-26T05:09:00.144Z,26.96
2019-06-26T05:10:05.989Z,27.01
2019-06-26T05:11:12.818Z,27.01
2019-06-26T05:12:17.884Z,27.02
2019-06-26T05:13:23.376Z,27.12
2019-06-26T05:14:28.420Z,27.23
2019-06-26T05:15:34.168Z,27.23
2019-06-26T05:16:39.208Z,27.27
2019-06-26T05:17:44.698Z,27.30
2019-06-26T05:18:49.633Z,27.35
2019-06-26T05:19:55.199Z,27.39
2019-06-26T05:21:00.237Z,27.42
2019-06-26T05:22:05.803Z,27.46
2019-06-26T05:23:10.886Z,27.47
2019-06-26T05:24:16.391Z,27.49
2019-06-26T05:25:21.297Z,27.51
2019-06-26T05:26:27.169Z,27.51
2019-06-26T05:27:32.138Z,27.52
2019-06-26T05:28:37.864Z,27.51
2019-06-26T05:29:42.875Z,27.55
2019-06-26T05:30:48.511Z,27.57
2019-06-26T05:31:53.429Z,27.60
2019-06-26T05:32:58.955Z,27.66
2019-06-26T05:34:04.354Z,27.71
2019-06-26T05:35:10.304Z,27.75
2019-06-26T05:36:15.559Z,27.76
2019-06-26T05:37:21.242Z,27.80
2019-06-26T05:38:26.139Z,27.82
2019-06-26T05:39:31.838Z,27.85
2019-06-26T05:40:36.794Z,27.86
2019-06-26T05:41:42.265Z,27.88
2019-06-26T05:42:47.255Z,27.90
2019-06-26T05:43:52.722Z,27.93
2019-06-26T05:44:57.771Z,27.95
2019-06-26T05:46:03.589Z,27.98
2019-06-26T05:47:08.677Z,28.00
2019-06-26T05:48:14.291Z,27.99
2019-06-26T05:49:19.269Z,28.00
2019-06-26T05:50:25.195Z,28.00
2019-06-26T05:51:30.586Z,28.02
2019-06-26T05:52:36.706Z,28.02
2019-06-26T05:53:41.620Z,28.04
2019-06-26T05:54:47.313Z,28.05
2019-06-26T05:55:52.271Z,28.08
2019-06-26T05:56:57.803Z,28.10
2019-06-26T05:58:02.805Z,28.11
2019-06-26T05:59:08.302Z,28.13
2019-06-26T06:00:13.606Z,28.13
2019-06-26T06:01:19.587Z,28.15
2019-06-26T06:02:25.180Z,28.16
2019-06-26T06:03:30.764Z,28.21
2019-06-26T06:04:35.910Z,28.24
2019-06-26T06:05:41.672Z,28.24
2019-06-26T06:06:46.998Z,28.26
2019-06-26T06:07:52.663Z,28.26
2019-06-26T06:08:57.734Z,28.27
2019-06-26T06:10:03.465Z,28.27
2019-06-26T06:11:08.500Z,28.28
2019-06-26T06:12:14.145Z,28.27
2019-06-26T06:13:19.072Z,28.28
2019-06-26T06:14:24.974Z,28.27
2019-06-26T06:15:29.953Z,28.26
2019-06-26T06:16:46.777Z,28.25
2019-06-26T06:17:42.206Z,28.24
2019-06-26T06:18:47.969Z,28.25
2019-06-26T06:19:53.173Z,28.29
2019-06-26T06:20:58.901Z,28.35
2019-06-26T06:22:04.390Z,28.39
2019-06-26T06:23:10.010Z,28.37
2019-06-26T06:24:14.989Z,28.37
2019-06-26T06:25:20.594Z,28.37
2019-06-26T06:26:25.838Z,28.38
2019-06-26T06:27:31.983Z,28.39
2019-06-26T06:28:36.975Z,28.43
2019-06-26T06:29:42.569Z,28.48
2019-06-26T06:30:47.675Z,28.51
2019-06-26T06:31:53.220Z,28.57
2019-06-26T06:32:58.327Z,28.60
2019-06-26T06:34:04.225Z,28.64
2019-06-26T06:35:09.764Z,28.64
2019-06-26T06:36:15.924Z,28.66
2019-06-26T06:37:20.897Z,28.69
2019-06-26T06:38:26.693Z,28.71
2019-06-26T06:39:32.163Z,28.73
2019-06-26T06:40:37.854Z,28.76
2019-06-26T06:41:43.578Z,28.77
2019-06-26T06:42:49.332Z,28.82
2019-06-26T06:43:54.553Z,28.87
2019-06-26T06:45:00.150Z,28.92
2019-06-26T06:46:05.290Z,28.96
2019-06-26T06:47:10.884Z,29.02
2019-06-26T06:48:16.129Z,29.08
2019-06-26T06:49:21.985Z,29.16
2019-06-26T06:50:27.079Z,29.21
2019-06-26T06:51:32.901Z,29.24
2019-06-26T06:52:38.224Z,29.26
2019-06-26T06:53:43.880Z,29.26
2019-06-26T06:54:49.114Z,29.30
2019-06-26T06:55:55.576Z,29.34
2019-06-26T06:57:00.662Z,29.36
2019-06-26T06:58:06.256Z,29.39
2019-06-26T06:59:11.280Z,29.39
2019-06-26T07:00:17.416Z,29.39
2019-06-26T07:01:22.417Z,29.37
2019-06-26T07:02:27.899Z,29.37
2019-06-26T07:03:32.869Z,29.38
2019-06-26T07:04:38.383Z,29.39
2019-06-26T07:05:43.502Z,29.41
2019-06-26T07:06:49.113Z,29.40
2019-06-26T07:07:54.175Z,29.38
2019-06-26T07:09:00.062Z,29.34
2019-06-26T07:10:05.282Z,29.31
2019-06-26T07:11:11.398Z,29.29
2019-06-26T07:12:16.804Z,29.29
2019-06-26T07:13:22.394Z,29.31
2019-06-26T07:14:27.474Z,29.31
2019-06-26T07:15:33.134Z,29.31
2019-06-26T07:16:38.254Z,29.35
2019-06-26T07:17:44.583Z,29.37
2019-06-26T07:18:49.715Z,29.40
2019-06-26T07:19:55.442Z,29.42
2019-06-26T07:21:00.623Z,29.45
2019-06-26T07:22:07.414Z,29.48
2019-06-26T07:23:12.569Z,29.48
2019-06-26T07:24:18.167Z,29.51
2019-06-26T07:25:23.156Z,29.55
2019-06-26T07:26:28.786Z,29.58
2019-06-26T07:27:33.822Z,29.60
2019-06-26T07:28:39.337Z,29.61
2019-06-26T07:29:44.769Z,29.61
2019-06-26T07:30:50.242Z,29.61
2019-06-26T07:31:55.253Z,29.61
2019-06-26T07:33:01.024Z,29.56
2019-06-26T07:34:06.774Z,29.55
2019-06-26T07:35:14.206Z,29.57
2019-06-26T07:36:19.087Z,29.60
2019-06-26T07:37:24.573Z,29.62
2019-06-26T07:38:29.861Z,29.67
2019-06-26T07:39:35.510Z,29.70
2019-06-26T07:40:40.490Z,29.73
2019-06-26T07:41:46.053Z,29.73
2019-06-26T07:42:51.433Z,29.73
2019-06-26T07:43:57.443Z,29.72
2019-06-26T07:45:02.442Z,29.70
2019-06-26T07:46:07.998Z,29.69
2019-06-26T07:47:23.205Z,29.68
2019-06-26T07:48:20.600Z,29.66
2019-06-26T07:49:25.659Z,29.65
2019-06-26T07:50:32.475Z,29.66
2019-06-26T07:51:37.974Z,29.67
2019-06-26T07:52:43.805Z,29.69
2019-06-26T07:53:49.527Z,29.70
2019-06-26T07:54:55.494Z,29.70
2019-06-26T07:56:00.545Z,29.69
2019-06-26T07:57:06.601Z,29.70
2019-06-26T07:58:11.552Z,29.72
2019-06-26T07:59:17.129Z,29.73
2019-06-26T08:00:22.258Z,29.73
2019-06-26T08:01:28.250Z,29.73
2019-06-26T08:02:33.104Z,29.70
2019-06-26T08:03:38.678Z,29.71
2019-06-26T08:04:44.213Z,29.70
2019-06-26T08:05:50.249Z,29.71
2019-06-26T08:06:55.690Z,29.72
2019-06-26T08:08:01.404Z,29.76
2019-06-26T08:09:07.142Z,29.76
2019-06-26T08:10:13.043Z,29.78
2019-06-26T08:11:17.941Z,29.77
2019-06-26T08:12:23.532Z,29.77
2019-06-26T08:13:28.422Z,29.74
2019-06-26T08:14:34.331Z,29.72
2019-06-26T08:15:39.559Z,29.72
2019-06-26T08:16:45.239Z,29.71
2019-06-26T08:18:00.720Z,29.70
2019-06-26T08:18:57.923Z,29.67
2019-06-26T08:20:02.921Z,29.67
2019-06-26T08:21:12.520Z,29.66
2019-06-26T08:22:15.560Z,29.65
2019-06-26T08:23:21.223Z,29.63
2019-06-26T08:24:26.253Z,29.64
2019-06-26T08:25:31.854Z,29.65
2019-06-26T08:26:37.175Z,29.66
2019-06-26T08:27:42.656Z,29.67
2019-06-26T08:28:47.761Z,29.68
2019-06-26T08:29:53.860Z,29.69
2019-06-26T08:30:59.074Z,29.69
2019-06-26T08:32:04.656Z,29.70
2019-06-26T08:33:09.688Z,29.71
2019-06-26T08:34:15.376Z,29.72
2019-06-26T08:35:20.638Z,29.73
2019-06-26T08:36:26.215Z,29.73
2019-06-26T08:37:31.115Z,29.74
2019-06-26T08:38:36.717Z,29.77
2019-06-26T08:39:41.703Z,29.79
2019-06-26T08:40:47.505Z,29.81
2019-06-26T08:41:52.361Z,29.82
2019-06-26T08:42:58.087Z,29.84
2019-06-26T08:44:03.044Z,29.85
2019-06-26T08:45:09.256Z,29.85
2019-06-26T08:46:14.753Z,29.86
2019-06-26T08:47:20.309Z,29.86
2019-06-26T08:48:38.790Z,29.87
2019-06-26T08:49:32.732Z,29.86
2019-06-26T08:50:37.673Z,29.86
2019-06-26T08:51:43.263Z,29.85
2019-06-26T08:52:48.295Z,29.86
2019-06-26T08:53:53.953Z,29.86
2019-06-26T08:54:58.958Z,29.87
2019-06-26T08:56:04.536Z,29.88
2019-06-26T08:57:09.513Z,29.87
2019-06-26T08:58:15.387Z,29.86
2019-06-26T08:59:20.428Z,29.84
2019-06-26T09:00:26.191Z,29.84
2019-06-26T09:01:31.133Z,29.83
2019-06-26T09:02:36.808Z,29.79
2019-06-26T09:03:42.202Z,29.77
2019-06-26T09:04:47.764Z,29.76
2019-06-26T09:05:52.688Z,29.73
2019-06-26T09:06:58.293Z,29.73
2019-06-26T09:08:03.501Z,29.73
2019-06-26T09:09:09.112Z,29.72
2019-06-26T09:10:14.949Z,29.69
2019-06-26T09:11:20.800Z,29.69
2019-06-26T09:12:25.769Z,29.72
2019-06-26T09:13:31.268Z,29.75
2019-06-26T09:14:36.197Z,29.74
2019-06-26T09:15:42.069Z,29.77
2019-06-26T09:16:47.438Z,29.79
2019-06-26T09:17:52.973Z,29.83
2019-06-26T09:18:57.896Z,29.87
2019-06-26T09:20:03.496Z,29.90
2019-06-26T09:21:08.452Z,29.92
2019-06-26T09:22:14.220Z,29.93
2019-06-26T09:23:19.129Z,29.95
2019-06-26T09:24:24.664Z,29.93
2019-06-26T09:25:29.991Z,29.94
2019-06-26T09:26:35.571Z,29.95
2019-06-26T09:27:40.497Z,29.96
2019-06-26T09:28:46.185Z,29.99
2019-06-26T09:29:51.188Z,29.97
2019-06-26T09:30:56.966Z,29.99
2019-06-26T09:32:02.257Z,30.03
2019-06-26T09:33:08.230Z,30.06
2019-06-26T09:34:13.269Z,30.08
2019-06-26T09:35:19.588Z,30.11
2019-06-26T09:36:24.724Z,30.12
2019-06-26T09:37:30.290Z,30.12
2019-06-26T09:38:35.258Z,30.13
2019-06-26T09:39:40.934Z,30.12
2019-06-26T09:40:45.854Z,30.11
2019-06-26T09:41:51.501Z,30.10
2019-06-26T09:42:56.490Z,30.10
2019-06-26T09:44:02.313Z,30.11
2019-06-26T09:45:07.311Z,30.12
2019-06-26T09:46:12.943Z,30.10
2019-06-26T09:47:18.223Z,30.11
2019-06-26T09:48:23.893Z,30.12
2019-06-26T09:49:28.879Z,30.12
2019-06-26T09:50:36.923Z,30.11
2019-06-26T09:51:42.050Z,30.11
2019-06-26T09:52:47.616Z,30.12
2019-06-26T09:53:52.699Z,30.13
2019-06-26T09:54:58.255Z,30.14
2019-06-26T09:56:03.281Z,30.17
2019-06-26T09:57:08.792Z,30.17
2019-06-26T09:58:13.927Z,30.16
2019-06-26T09:59:19.736Z,30.15
2019-06-26T10:00:27.992Z,30.13
2019-06-26T10:01:33.788Z,30.11
2019-06-26T10:02:38.823Z,30.11
2019-06-26T10:03:45.410Z,30.10
2019-06-26T10:04:51.283Z,30.12
2019-06-26T10:05:57.212Z,30.13
2019-06-26T10:07:02.170Z,30.14
2019-06-26T10:08:07.737Z,30.17
2019-06-26T10:09:12.664Z,30.20
2019-06-26T10:10:19.293Z,30.22
2019-06-26T10:11:24.254Z,30.24
2019-06-26T10:12:29.793Z,30.26
2019-06-26T10:13:34.978Z,30.27
2019-06-26T10:14:47.076Z,30.28
2019-06-26T10:15:47.110Z,30.30
2019-06-26T10:16:52.819Z,30.32
2019-06-26T10:17:57.709Z,30.33
2019-06-26T10:19:10.087Z,30.34
2019-06-26T10:20:10.640Z,30.35
2019-06-26T10:21:16.498Z,30.36
2019-06-26T10:22:21.660Z,30.36
2019-06-26T10:23:27.331Z,30.34
2019-06-26T10:24:32.620Z,30.34
2019-06-26T10:25:38.136Z,30.33
2019-06-26T10:26:43.335Z,30.30
2019-06-26T10:27:49.106Z,30.28
2019-06-26T10:28:54.027Z,30.28
2019-06-26T10:29:59.547Z,30.29
2019-06-26T10:31:04.683Z,30.31
2019-06-26T10:32:10.949Z,30.32
2019-06-26T10:33:16.066Z,30.33
2019-06-26T10:34:21.515Z,30.32
2019-06-26T10:35:26.527Z,30.32
2019-06-26T10:36:32.014Z,30.32
2019-06-26T10:37:36.930Z,30.34
2019-06-26T10:38:42.527Z,30.35
2019-06-26T10:39:48.212Z,30.36
2019-06-26T10:40:54.044Z,30.36
2019-06-26T10:41:58.973Z,30.34
2019-06-26T10:43:04.622Z,30.30
2019-06-26T10:44:10.265Z,30.28
2019-06-26T10:45:16.023Z,30.27
2019-06-26T10:46:21.006Z,30.26
2019-06-26T10:47:26.951Z,30.25
2019-06-26T10:48:31.976Z,30.24
2019-06-26T10:49:37.646Z,30.25
2019-06-26T10:50:49.398Z,30.23
2019-06-26T10:51:49.820Z,30.21
2019-06-26T10:52:55.122Z,30.22
2019-06-26T10:54:00.818Z,30.25
2019-06-26T10:55:05.938Z,30.27
2019-06-26T10:56:11.559Z,30.30
2019-06-26T10:57:16.812Z,30.34
2019-06-26T10:58:22.672Z,30.36
2019-06-26T10:59:27.750Z,30.37
2019-06-26T11:00:33.392Z,30.39
2019-06-26T11:01:38.696Z,30.37
2019-06-26T11:02:44.243Z,30.34
2019-06-26T11:03:49.134Z,30.33
2019-06-26T11:04:54.608Z,30.31
2019-06-26T11:05:59.583Z,30.32
2019-06-26T11:07:05.148Z,30.32
2019-06-26T11:08:10.343Z,30.34
2019-06-26T11:09:16.106Z,30.36
2019-06-26T11:10:22.071Z,30.39
2019-06-26T11:11:27.657Z,30.43
2019-06-26T11:12:33.102Z,30.46
2019-06-26T11:13:38.843Z,30.50
2019-06-26T11:14:44.305Z,30.51
2019-06-26T11:15:50.348Z,30.54
2019-06-26T11:16:55.237Z,30.55
2019-06-26T11:18:00.839Z,30.59
2019-06-26T11:19:05.974Z,30.62
2019-06-26T11:20:11.949Z,30.64
2019-06-26T11:21:16.881Z,30.64
2019-06-26T11:22:22.661Z,30.62
2019-06-26T11:23:27.693Z,30.60
2019-06-26T11:24:33.453Z,30.59
2019-06-26T11:25:38.476Z,30.59
2019-06-26T11:26:44.272Z,30.58
2019-06-26T11:27:49.223Z,30.59
2019-06-26T11:28:54.711Z,30.56
2019-06-26T11:29:59.803Z,30.54
2019-06-26T11:31:05.659Z,30.54
2019-06-26T11:32:10.635Z,30.54
2019-06-26T11:33:16.128Z,30.55
2019-06-26T11:34:21.567Z,30.56
2019-06-26T11:35:27.313Z,30.56
2019-06-26T11:36:32.547Z,30.55
2019-06-26T11:37:38.557Z,30.56
2019-06-26T11:38:43.509Z,30.57
2019-06-26T11:39:49.028Z,30.58
2019-06-26T11:40:54.219Z,30.57
2019-06-26T11:41:59.836Z,30.56
2019-06-26T11:43:04.810Z,30.56
2019-06-26T11:44:10.399Z,30.55
2019-06-26T11:45:15.591Z,30.54
2019-06-26T11:46:21.313Z,30.56
2019-06-26T11:47:26.314Z,30.56
2019-06-26T11:48:31.978Z,30.57
2019-06-26T11:49:36.898Z,30.59
2019-06-26T11:50:42.510Z,30.59
2019-06-26T11:51:47.635Z,30.60
2019-06-26T11:52:53.630Z,30.61
2019-06-26T11:53:59.183Z,30.60
2019-06-26T11:55:04.928Z,30.59
2019-06-26T11:56:10.901Z,30.59
2019-06-26T11:57:16.610Z,30.59
2019-06-26T11:58:21.568Z,30.56
2019-06-26T11:59:27.333Z,30.54
2019-06-26T12:00:32.328Z,30.54
2019-06-26T12:01:37.799Z,30.50
2019-06-26T12:02:42.716Z,30.51
2019-06-26T12:03:48.700Z,30.48
2019-06-26T12:04:53.612Z,30.50
2019-06-26T12:06:15.162Z,30.50
2019-06-26T12:07:05.884Z,30.48
2019-06-26T12:08:11.397Z,30.50
2019-06-26T12:09:16.387Z,30.53
2019-06-26T12:10:22.425Z,30.56
2019-06-26T12:11:27.318Z,30.58
2019-06-26T12:12:32.821Z,30.60
2019-06-26T12:13:37.781Z,30.60
2019-06-26T12:14:43.319Z,30.60
2019-06-26T12:15:48.308Z,30.61
2019-06-26T12:16:53.982Z,30.61
2019-06-26T12:17:58.880Z,30.61
2019-06-26T12:19:04.592Z,30.62
2019-06-26T12:20:18.386Z,30.61
2019-06-26T12:21:17.225Z,30.62
2019-06-26T12:22:22.138Z,30.62
2019-06-26T12:23:27.685Z,30.62
2019-06-26T12:24:32.685Z,30.62
2019-06-26T12:25:38.540Z,30.64
2019-06-26T12:26:43.883Z,30.67
2019-06-26T12:27:49.603Z,30.69
2019-06-26T12:28:54.558Z,30.70
2019-06-26T12:30:00.082Z,30.70
2019-06-26T12:31:05.423Z,30.72
2019-06-26T12:32:11.282Z,30.74
2019-06-26T12:33:16.296Z,30.76
2019-06-26T12:34:22.357Z,30.77
2019-06-26T12:35:27.292Z,30.77
2019-06-26T12:36:32.787Z,30.75
2019-06-26T12:37:38.461Z,30.70
2019-06-26T12:38:44.019Z,30.67
2019-06-26T12:39:49.281Z,30.65
2019-06-26T12:40:55.166Z,30.64
2019-06-26T12:42:00.397Z,30.65
2019-06-26T12:43:05.977Z,30.68
2019-06-26T12:44:11.144Z,30.68
2019-06-26T12:45:17.271Z,30.69
2019-06-26T12:46:22.200Z,30.70
2019-06-26T12:47:27.799Z,30.70
2019-06-26T12:48:32.704Z,30.69
2019-06-26T12:49:38.638Z,30.68
2019-06-26T12:50:43.629Z,30.65
2019-06-26T12:51:49.613Z,30.65
2019-06-26T12:52:54.584Z,30.67
2019-06-26T12:54:00.138Z,30.68
2019-06-26T12:55:05.462Z,30.68
2019-06-26T12:56:10.933Z,30.69
2019-06-26T12:57:15.874Z,30.68
2019-06-26T12:58:21.450Z,30.70
2019-06-26T12:59:26.546Z,30.70
2019-06-26T13:00:32.041Z,30.69
2019-06-26T13:01:37.062Z,30.71
2019-06-26T13:02:42.699Z,30.72
2019-06-26T13:03:47.733Z,30.73
2019-06-26T13:04:53.283Z,30.75
2019-06-26T13:05:58.209Z,30.77
2019-06-26T13:07:03.923Z,30.76
2019-06-26T13:08:08.920Z,30.76
2019-06-26T13:09:14.471Z,30.76
2019-06-26T13:10:19.922Z,30.77
2019-06-26T13:11:25.445Z,30.78
2019-06-26T13:12:30.566Z,30.79
2019-06-26T13:13:36.166Z,30.79
2019-06-26T13:14:41.125Z,30.79
2019-06-26T13:15:50.822Z,30.78
2019-06-26T13:16:54.398Z,30.77
2019-06-26T13:18:01.503Z,30.74
2019-06-26T13:19:06.791Z,30.72
2019-06-26T13:20:12.836Z,30.70
2019-06-26T13:21:17.823Z,30.69
2019-06-26T13:22:23.330Z,30.68
2019-06-26T13:23:28.358Z,30.68
2019-06-26T13:24:33.919Z,30.69
2019-06-26T13:25:38.816Z,30.71
2019-06-26T13:26:44.543Z,30.74
2019-06-26T13:27:49.690Z,30.75
2019-06-26T13:28:55.410Z,30.79
2019-06-26T13:30:00.596Z,30.82
2019-06-26T13:31:06.147Z,30.82
2019-06-26T13:32:11.044Z,30.83
2019-06-26T13:33:16.619Z,30.84
2019-06-26T13:34:22.056Z,30.87
2019-06-26T13:35:27.656Z,30.88
2019-06-26T13:36:33.144Z,30.90
2019-06-26T13:37:38.691Z,30.89
2019-06-26T13:38:43.684Z,30.88
2019-06-26T13:39:49.176Z,30.87
2019-06-26T13:40:54.139Z,30.90
2019-06-26T13:41:59.705Z,30.91
2019-06-26T13:43:05.087Z,30.91
2019-06-26T13:44:10.597Z,30.90
2019-06-26T13:45:15.772Z,30.92
2019-06-26T13:46:21.504Z,30.93
2019-06-26T13:47:26.471Z,30.93
2019-06-26T13:48:31.946Z,30.93
2019-06-26T13:49:37.079Z,30.92
2019-06-26T13:50:42.705Z,30.92
2019-06-26T13:51:47.669Z,30.93
2019-06-26T13:52:53.219Z,30.95
2019-06-26T13:53:58.439Z,30.96
2019-06-26T13:55:04.154Z,30.95
2019-06-26T13:56:09.267Z,30.98
2019-06-26T13:57:15.913Z,31.00
2019-06-26T13:58:20.988Z,31.05
2019-06-26T13:59:26.750Z,31.04
2019-06-26T14:00:31.815Z,31.04
2019-06-26T14:01:37.323Z,31.03
2019-06-26T14:02:42.380Z,31.03
2019-06-26T14:03:47.954Z,31.04
2019-06-26T14:04:52.921Z,31.02
2019-06-26T14:05:58.449Z,31.02